sensor_id;sensor_type;location;lat;lon;timestamp;temperature;humidity
210;DHT22;90;48.810;9.120;2023-03-01T00:00:03;0.10;74.30
210;DHT22;90;48.810;9.120;2023-03-01T00:02:35;0.10;74.20
210;DHT22;90;48.810;9.120;2023-03-01T00:05:06;0.10;74.30
210;DHT22;90;48.810;9.120;2023-03-01T00:07:36;0.10;74.40
210;DHT22;90;48.810;9.120;2023-03-01T00:10:05;0.10;74.40
210;DHT22;90;48.810;9.120;2023-03-01T00:12:35;0.10;74.40
210;DHT22;90;48.810;9.120;2023-03-01T00:15:07;0.10;74.40
210;DHT22;90;48.810;9.120;2023-03-01T00:17:39;0.20;74.40
210;DHT22;90;48.810;9.120;2023-03-01T00:20:11;0.20;74.50
210;DHT22;90;48.810;9.120;2023-03-01T00:22:50;0.20;74.40
210;DHT22;90;48.810;9.120;2023-03-01T00:25:19;0.10;74.40
210;DHT22;90;48.810;9.120;2023-03-01T00:27:48;0.00;74.40
210;DHT22;90;48.810;9.120;2023-03-01T00:30:16;-0.10;74.60
210;DHT22;90;48.810;9.120;2023-03-01T00:32:50;-0.10;74.90
210;DHT22;90;48.810;9.120;2023-03-01T00:35:41;-0.10;74.90
210;DHT22;90;48.810;9.120;2023-03-01T00:38:23;-0.20;75.30
210;DHT22;90;48.810;9.120;2023-03-01T00:40:52;-0.30;75.70
210;DHT22;90;48.810;9.120;2023-03-01T00:43:28;-0.30;76.00
210;DHT22;90;48.810;9.120;2023-03-01T00:46:01;-0.30;76.20
210;DHT22;90;48.810;9.120;2023-03-01T00:48:28;-0.30;76.30
210;DHT22;90;48.810;9.120;2023-03-01T00:50:57;-0.20;76.10
210;DHT22;90;48.810;9.120;2023-03-01T00:53:30;-0.20;76.10
210;DHT22;90;48.810;9.120;2023-03-01T00:55:58;-0.10;76.00
210;DHT22;90;48.810;9.120;2023-03-01T00:58:31;-0.10;75.70
210;DHT22;90;48.810;9.120;2023-03-01T01:00:59;-0.10;75.70
210;DHT22;90;48.810;9.120;2023-03-01T01:03:32;-0.10;75.70
210;DHT22;90;48.810;9.120;2023-03-01T01:06:03;0.00;75.60
210;DHT22;90;48.810;9.120;2023-03-01T01:08:35;0.00;75.60
210;DHT22;90;48.810;9.120;2023-03-01T01:11:03;0.10;75.30
210;DHT22;90;48.810;9.120;2023-03-01T01:13:32;0.00;75.30
210;DHT22;90;48.810;9.120;2023-03-01T01:16:09;0.10;75.20
210;DHT22;90;48.810;9.120;2023-03-01T01:18:42;0.00;74.80
210;DHT22;90;48.810;9.120;2023-03-01T01:21:24;0.00;74.60
210;DHT22;90;48.810;9.120;2023-03-01T01:24:11;0.00;74.90
210;DHT22;90;48.810;9.120;2023-03-01T01:26:38;0.00;74.70
210;DHT22;90;48.810;9.120;2023-03-01T01:29:08;-0.20;74.80
210;DHT22;90;48.810;9.120;2023-03-01T01:31:36;-0.20;75.20
210;DHT22;90;48.810;9.120;2023-03-01T01:34:06;-0.20;75.20
210;DHT22;90;48.810;9.120;2023-03-01T01:36:34;-0.20;75.50
210;DHT22;90;48.810;9.120;2023-03-01T01:39:02;-0.30;75.50
210;DHT22;90;48.810;9.120;2023-03-01T01:41:30;-0.30;75.70
210;DHT22;90;48.810;9.120;2023-03-01T01:44:16;-0.30;75.90
210;DHT22;90;48.810;9.120;2023-03-01T01:46:47;-0.40;76.20
210;DHT22;90;48.810;9.120;2023-03-01T01:49:25;-0.50;75.90
210;DHT22;90;48.810;9.120;2023-03-01T01:51:59;-0.60;76.30
210;DHT22;90;48.810;9.120;2023-03-01T01:54:30;-0.60;76.70
210;DHT22;90;48.810;9.120;2023-03-01T01:57:01;-0.60;76.80
210;DHT22;90;48.810;9.120;2023-03-01T01:59:35;-0.60;77.00
210;DHT22;90;48.810;9.120;2023-03-01T02:02:04;-0.60;76.90
210;DHT22;90;48.810;9.120;2023-03-01T02:04:33;-0.50;76.90
210;DHT22;90;48.810;9.120;2023-03-01T02:07:08;-0.50;76.80
210;DHT22;90;48.810;9.120;2023-03-01T02:09:38;-0.60;76.90
210;DHT22;90;48.810;9.120;2023-03-01T02:12:05;-0.60;77.40
210;DHT22;90;48.810;9.120;2023-03-01T02:14:42;-0.60;77.50
210;DHT22;90;48.810;9.120;2023-03-01T02:17:12;-0.50;77.40
210;DHT22;90;48.810;9.120;2023-03-01T02:19:57;-0.50;77.20
210;DHT22;90;48.810;9.120;2023-03-01T02:22:47;-0.50;77.30
210;DHT22;90;48.810;9.120;2023-03-01T02:25:44;-0.50;77.50
210;DHT22;90;48.810;9.120;2023-03-01T02:28:24;-0.50;77.60
210;DHT22;90;48.810;9.120;2023-03-01T02:30:53;-0.60;77.90
210;DHT22;90;48.810;9.120;2023-03-01T02:33:39;-0.50;78.00
210;DHT22;90;48.810;9.120;2023-03-01T02:36:14;-0.40;77.80
210;DHT22;90;48.810;9.120;2023-03-01T02:38:45;-0.40;77.70
210;DHT22;90;48.810;9.120;2023-03-01T02:41:15;-0.30;77.70
210;DHT22;90;48.810;9.120;2023-03-01T02:43:45;-0.20;77.20
210;DHT22;90;48.810;9.120;2023-03-01T02:46:18;-0.20;77.10
210;DHT22;90;48.810;9.120;2023-03-01T02:48:49;-0.20;77.20
210;DHT22;90;48.810;9.120;2023-03-01T02:54:17;-0.10;77.20
210;DHT22;90;48.810;9.120;2023-03-01T02:56:48;-0.10;77.00
210;DHT22;90;48.810;9.120;2023-03-01T02:59:22;0.00;77.10
210;DHT22;90;48.810;9.120;2023-03-01T03:01:54;0.00;77.00
210;DHT22;90;48.810;9.120;2023-03-01T03:04:29;0.00;77.00
210;DHT22;90;48.810;9.120;2023-03-01T03:06:57;0.10;77.00
210;DHT22;90;48.810;9.120;2023-03-01T03:09:25;0.00;76.80
210;DHT22;90;48.810;9.120;2023-03-01T03:11:55;0.10;76.70
210;DHT22;90;48.810;9.120;2023-03-01T03:14:28;0.10;76.90
210;DHT22;90;48.810;9.120;2023-03-01T03:17:09;0.00;77.10
210;DHT22;90;48.810;9.120;2023-03-01T03:19:41;0.00;77.30
210;DHT22;90;48.810;9.120;2023-03-01T03:22:13;0.00;77.30
210;DHT22;90;48.810;9.120;2023-03-01T03:24:40;0.10;77.10
210;DHT22;90;48.810;9.120;2023-03-01T03:27:14;0.20;77.20
210;DHT22;90;48.810;9.120;2023-03-01T03:29:43;0.20;77.00
210;DHT22;90;48.810;9.120;2023-03-01T03:32:10;0.20;76.70
210;DHT22;90;48.810;9.120;2023-03-01T03:34:37;0.30;76.60
210;DHT22;90;48.810;9.120;2023-03-01T03:37:05;0.30;76.30
210;DHT22;90;48.810;9.120;2023-03-01T03:39:52;0.40;76.20
210;DHT22;90;48.810;9.120;2023-03-01T03:42:20;0.30;76.10
210;DHT22;90;48.810;9.120;2023-03-01T03:44:49;0.30;76.40
210;DHT22;90;48.810;9.120;2023-03-01T03:47:17;0.30;76.50
210;DHT22;90;48.810;9.120;2023-03-01T03:49:44;0.30;76.70
210;DHT22;90;48.810;9.120;2023-03-01T03:52:12;0.30;76.80
210;DHT22;90;48.810;9.120;2023-03-01T03:54:40;0.40;76.90
210;DHT22;90;48.810;9.120;2023-03-01T03:57:07;0.30;77.40
210;DHT22;90;48.810;9.120;2023-03-01T03:59:37;0.40;77.10
210;DHT22;90;48.810;9.120;2023-03-01T04:02:05;0.40;77.40
210;DHT22;90;48.810;9.120;2023-03-01T04:04:34;0.40;77.30
210;DHT22;90;48.810;9.120;2023-03-01T04:07:03;0.40;76.90
210;DHT22;90;48.810;9.120;2023-03-01T04:09:30;0.50;77.00
210;DHT22;90;48.810;9.120;2023-03-01T04:11:57;0.40;77.20
210;DHT22;90;48.810;9.120;2023-03-01T04:14:28;0.40;77.30
210;DHT22;90;48.810;9.120;2023-03-01T04:16:55;0.50;77.10
210;DHT22;90;48.810;9.120;2023-03-01T04:19:24;0.40;77.50
210;DHT22;90;48.810;9.120;2023-03-01T04:21:52;0.50;77.30
210;DHT22;90;48.810;9.120;2023-03-01T04:24:22;0.60;77.00
210;DHT22;90;48.810;9.120;2023-03-01T04:26:50;0.60;76.90
210;DHT22;90;48.810;9.120;2023-03-01T04:29:17;0.50;77.10
210;DHT22;90;48.810;9.120;2023-03-01T04:31:45;0.40;77.30
210;DHT22;90;48.810;9.120;2023-03-01T04:34:12;0.50;77.50
210;DHT22;90;48.810;9.120;2023-03-01T04:36:41;0.50;77.00
210;DHT22;90;48.810;9.120;2023-03-01T04:39:08;0.50;77.30
210;DHT22;90;48.810;9.120;2023-03-01T04:41:38;0.50;77.30
210;DHT22;90;48.810;9.120;2023-03-01T04:44:06;0.50;77.20
210;DHT22;90;48.810;9.120;2023-03-01T04:46:35;0.60;77.50
210;DHT22;90;48.810;9.120;2023-03-01T04:49:03;0.70;77.40
210;DHT22;90;48.810;9.120;2023-03-01T04:51:31;0.70;77.10
210;DHT22;90;48.810;9.120;2023-03-01T04:54:00;0.70;77.00
210;DHT22;90;48.810;9.120;2023-03-01T04:56:27;0.80;77.50
210;DHT22;90;48.810;9.120;2023-03-01T04:58:54;0.90;76.50
210;DHT22;90;48.810;9.120;2023-03-01T05:01:21;0.80;76.60
210;DHT22;90;48.810;9.120;2023-03-01T05:03:50;0.80;76.90
210;DHT22;90;48.810;9.120;2023-03-01T05:06:18;0.80;76.50
210;DHT22;90;48.810;9.120;2023-03-01T05:08:45;0.70;76.90
210;DHT22;90;48.810;9.120;2023-03-01T05:11:14;0.80;76.70
210;DHT22;90;48.810;9.120;2023-03-01T05:13:41;0.70;77.00
210;DHT22;90;48.810;9.120;2023-03-01T05:16:09;0.70;77.10
210;DHT22;90;48.810;9.120;2023-03-01T05:18:38;0.80;76.90
210;DHT22;90;48.810;9.120;2023-03-01T05:21:07;0.70;77.10
210;DHT22;90;48.810;9.120;2023-03-01T05:23:35;0.70;77.30
210;DHT22;90;48.810;9.120;2023-03-01T05:26:04;0.70;77.20
210;DHT22;90;48.810;9.120;2023-03-01T05:28:33;0.70;77.50
210;DHT22;90;48.810;9.120;2023-03-01T05:31:00;0.80;77.60
210;DHT22;90;48.810;9.120;2023-03-01T05:33:28;0.70;77.60
210;DHT22;90;48.810;9.120;2023-03-01T05:36:00;0.70;78.00
210;DHT22;90;48.810;9.120;2023-03-01T05:38:27;0.60;78.00
210;DHT22;90;48.810;9.120;2023-03-01T05:40:57;0.70;78.00
210;DHT22;90;48.810;9.120;2023-03-01T05:43:24;0.70;77.80
210;DHT22;90;48.810;9.120;2023-03-01T05:45:53;0.90;77.30
210;DHT22;90;48.810;9.120;2023-03-01T05:48:20;0.80;77.40
210;DHT22;90;48.810;9.120;2023-03-01T05:50:48;0.90;77.30
210;DHT22;90;48.810;9.120;2023-03-01T05:53:17;0.90;76.90
210;DHT22;90;48.810;9.120;2023-03-01T05:56:04;0.90;76.90
210;DHT22;90;48.810;9.120;2023-03-01T05:58:32;0.80;77.50
210;DHT22;90;48.810;9.120;2023-03-01T06:01:00;0.70;77.90
210;DHT22;90;48.810;9.120;2023-03-01T06:03:28;0.70;78.00
210;DHT22;90;48.810;9.120;2023-03-01T06:05:56;0.90;77.70
210;DHT22;90;48.810;9.120;2023-03-01T06:08:23;0.80;77.40
210;DHT22;90;48.810;9.120;2023-03-01T06:10:52;0.90;77.10
210;DHT22;90;48.810;9.120;2023-03-01T06:13:19;0.90;77.10
210;DHT22;90;48.810;9.120;2023-03-01T06:15:46;0.90;77.30
210;DHT22;90;48.810;9.120;2023-03-01T06:18:15;0.90;77.40
210;DHT22;90;48.810;9.120;2023-03-01T06:20:53;0.90;77.30
210;DHT22;90;48.810;9.120;2023-03-01T06:23:20;1.00;77.30
210;DHT22;90;48.810;9.120;2023-03-01T06:25:47;0.90;77.30
210;DHT22;90;48.810;9.120;2023-03-01T06:28:14;0.90;77.50
210;DHT22;90;48.810;9.120;2023-03-01T06:30:41;0.90;77.80
210;DHT22;90;48.810;9.120;2023-03-01T06:33:09;0.90;77.50
210;DHT22;90;48.810;9.120;2023-03-01T06:35:37;0.90;77.80
210;DHT22;90;48.810;9.120;2023-03-01T06:38:05;0.90;77.50
210;DHT22;90;48.810;9.120;2023-03-01T06:40:34;0.80;77.80
210;DHT22;90;48.810;9.120;2023-03-01T06:43:02;0.90;78.00
210;DHT22;90;48.810;9.120;2023-03-01T06:45:29;0.80;77.80
210;DHT22;90;48.810;9.120;2023-03-01T06:48:22;0.70;78.10
210;DHT22;90;48.810;9.120;2023-03-01T06:51:09;0.80;78.40
210;DHT22;90;48.810;9.120;2023-03-01T06:53:50;0.70;78.20
210;DHT22;90;48.810;9.120;2023-03-01T06:59:39;0.90;78.50
210;DHT22;90;48.810;9.120;2023-03-01T07:02:30;0.80;78.50
210;DHT22;90;48.810;9.120;2023-03-01T07:12:07;1.00;77.50
210;DHT22;90;48.810;9.120;2023-03-01T07:15:17;1.00;77.90
210;DHT22;90;48.810;9.120;2023-03-01T07:18:08;1.10;77.90
210;DHT22;90;48.810;9.120;2023-03-01T07:20:51;1.20;77.40
210;DHT22;90;48.810;9.120;2023-03-01T07:23:54;1.30;76.80
210;DHT22;90;48.810;9.120;2023-03-01T07:26:24;1.30;76.20
210;DHT22;90;48.810;9.120;2023-03-01T07:45:53;1.10;75.30
210;DHT22;90;48.810;9.120;2023-03-01T07:52:33;1.30;75.10
210;DHT22;90;48.810;9.120;2023-03-01T07:55:42;1.40;74.80
210;DHT22;90;48.810;9.120;2023-03-01T08:50:15;2.80;81.70
210;DHT22;90;48.810;9.120;2023-03-01T08:52:42;3.00;76.10
210;DHT22;90;48.810;9.120;2023-03-01T08:55:09;3.00;71.90
210;DHT22;90;48.810;9.120;2023-03-01T08:57:37;2.90;70.00
210;DHT22;90;48.810;9.120;2023-03-01T09:00:05;2.80;69.60
210;DHT22;90;48.810;9.120;2023-03-01T09:02:37;2.80;69.60
210;DHT22;90;48.810;9.120;2023-03-01T09:05:05;2.80;69.80
210;DHT22;90;48.810;9.120;2023-03-01T09:07:37;3.50;85.60
210;DHT22;90;48.810;9.120;2023-03-01T09:13:55;3.50;68.70
210;DHT22;90;48.810;9.120;2023-03-01T09:19:52;3.50;69.40
210;DHT22;90;48.810;9.120;2023-03-01T09:22:22;3.30;67.60
210;DHT22;90;48.810;9.120;2023-03-01T09:25:03;3.10;68.20
210;DHT22;90;48.810;9.120;2023-03-01T09:27:33;3.10;68.10
210;DHT22;90;48.810;9.120;2023-03-01T09:30:06;3.40;70.60
210;DHT22;90;48.810;9.120;2023-03-01T09:32:36;3.30;67.60
210;DHT22;90;48.810;9.120;2023-03-01T09:35:04;3.20;67.40
210;DHT22;90;48.810;9.120;2023-03-01T09:41:00;3.20;68.40
210;DHT22;90;48.810;9.120;2023-03-01T09:47:02;3.30;67.60
210;DHT22;90;48.810;9.120;2023-03-01T09:49:39;3.30;67.70
210;DHT22;90;48.810;9.120;2023-03-01T09:52:28;3.30;67.20
210;DHT22;90;48.810;9.120;2023-03-01T10:10:46;4.60;89.40
210;DHT22;90;48.810;9.120;2023-03-01T10:16:32;4.50;65.00
210;DHT22;90;48.810;9.120;2023-03-01T10:22:36;4.20;63.80
210;DHT22;90;48.810;9.120;2023-03-01T10:29:30;4.20;65.40
210;DHT22;90;48.810;9.120;2023-03-01T10:32:14;4.40;64.20
210;DHT22;90;48.810;9.120;2023-03-01T10:34:50;4.50;64.10
210;DHT22;90;48.810;9.120;2023-03-01T10:37:22;4.60;63.80
210;DHT22;90;48.810;9.120;2023-03-01T10:40:06;4.60;62.90
210;DHT22;90;48.810;9.120;2023-03-01T10:42:46;4.50;63.30
210;DHT22;90;48.810;9.120;2023-03-01T10:48:15;4.80;62.80
210;DHT22;90;48.810;9.120;2023-03-01T10:50:47;5.00;62.20
210;DHT22;90;48.810;9.120;2023-03-01T10:53:33;5.10;61.90
210;DHT22;90;48.810;9.120;2023-03-01T10:56:14;5.20;61.10
210;DHT22;90;48.810;9.120;2023-03-01T10:58:59;5.20;60.90
210;DHT22;90;48.810;9.120;2023-03-01T11:02:12;5.20;61.00
210;DHT22;90;48.810;9.120;2023-03-01T11:05:16;5.40;61.30
210;DHT22;90;48.810;9.120;2023-03-01T11:11:58;5.20;60.60
210;DHT22;90;48.810;9.120;2023-03-01T11:14:53;5.30;60.70
210;DHT22;90;48.810;9.120;2023-03-01T11:17:31;5.30;60.00
210;DHT22;90;48.810;9.120;2023-03-01T12:14:40;6.70;57.00
210;DHT22;90;48.810;9.120;2023-03-01T12:20:31;7.00;57.00
210;DHT22;90;48.810;9.120;2023-03-01T12:23:39;7.30;56.50
210;DHT22;90;48.810;9.120;2023-03-01T12:26:23;7.50;56.10
210;DHT22;90;48.810;9.120;2023-03-01T12:29:08;7.40;55.60
210;DHT22;90;48.810;9.120;2023-03-01T12:35:03;7.40;55.80
210;DHT22;90;48.810;9.120;2023-03-01T12:37:45;7.50;55.90
210;DHT22;90;48.810;9.120;2023-03-01T12:40:37;7.70;55.30
210;DHT22;90;48.810;9.120;2023-03-01T12:43:27;7.80;54.90
210;DHT22;90;48.810;9.120;2023-03-01T12:46:12;8.00;54.80
210;DHT22;90;48.810;9.120;2023-03-01T12:48:51;8.10;54.20
210;DHT22;90;48.810;9.120;2023-03-01T12:51:50;8.10;55.00
210;DHT22;90;48.810;9.120;2023-03-01T13:26:40;7.90;53.30
210;DHT22;90;48.810;9.120;2023-03-01T13:29:25;7.90;53.40
210;DHT22;90;48.810;9.120;2023-03-01T13:31:58;8.10;53.00
210;DHT22;90;48.810;9.120;2023-03-01T13:34:57;8.20;53.20
210;DHT22;90;48.810;9.120;2023-03-01T13:37:36;8.40;52.70
210;DHT22;90;48.810;9.120;2023-03-01T13:42:56;8.50;51.80
210;DHT22;90;48.810;9.120;2023-03-01T13:45:42;8.50;52.10
210;DHT22;90;48.810;9.120;2023-03-01T13:48:14;8.60;52.20
210;DHT22;90;48.810;9.120;2023-03-01T13:50:55;8.70;51.90
210;DHT22;90;48.810;9.120;2023-03-01T13:53:26;8.80;51.90
210;DHT22;90;48.810;9.120;2023-03-01T13:56:03;8.90;51.40
210;DHT22;90;48.810;9.120;2023-03-01T13:59:02;8.70;51.60
210;DHT22;90;48.810;9.120;2023-03-01T14:02:00;9.00;51.90
210;DHT22;90;48.810;9.120;2023-03-01T14:04:58;9.00;51.80
210;DHT22;90;48.810;9.120;2023-03-01T14:07:28;9.10;52.10
210;DHT22;90;48.810;9.120;2023-03-01T14:26:51;9.20;51.50
210;DHT22;90;48.810;9.120;2023-03-01T14:30:03;9.10;51.40
210;DHT22;90;48.810;9.120;2023-03-01T14:40:37;9.60;51.20
210;DHT22;90;48.810;9.120;2023-03-01T14:43:19;9.60;50.80
210;DHT22;90;48.810;9.120;2023-03-01T14:46:15;9.50;50.60
210;DHT22;90;48.810;9.120;2023-03-01T14:48:49;9.40;50.90
210;DHT22;90;48.810;9.120;2023-03-01T14:51:23;9.40;51.70
210;DHT22;90;48.810;9.120;2023-03-01T14:56:44;9.40;50.70
210;DHT22;90;48.810;9.120;2023-03-01T14:59:37;9.30;51.40
210;DHT22;90;48.810;9.120;2023-03-01T15:02:15;9.30;51.50
210;DHT22;90;48.810;9.120;2023-03-01T15:07:30;9.30;51.30
210;DHT22;90;48.810;9.120;2023-03-01T15:10:33;9.00;51.40
210;DHT22;90;48.810;9.120;2023-03-01T15:14:39;9.00;51.70
210;DHT22;90;48.810;9.120;2023-03-01T15:20:42;9.00;52.20
210;DHT22;90;48.810;9.120;2023-03-01T15:29:03;9.30;51.60
210;DHT22;90;48.810;9.120;2023-03-01T15:31:56;9.20;51.60
210;DHT22;90;48.810;9.120;2023-03-01T15:34:33;9.20;51.10
210;DHT22;90;48.810;9.120;2023-03-01T15:40:49;9.10;51.60
210;DHT22;90;48.810;9.120;2023-03-01T15:43:38;9.10;51.40
210;DHT22;90;48.810;9.120;2023-03-01T15:46:31;9.00;51.50
210;DHT22;90;48.810;9.120;2023-03-01T15:49:23;8.70;51.60
210;DHT22;90;48.810;9.120;2023-03-01T15:52:28;8.60;52.20
210;DHT22;90;48.810;9.120;2023-03-01T15:54:58;8.60;52.30
210;DHT22;90;48.810;9.120;2023-03-01T15:57:27;10.10;86.90
210;DHT22;90;48.810;9.120;2023-03-01T15:59:54;11.30;72.70
210;DHT22;90;48.810;9.120;2023-03-01T16:02:21;12.20;70.10
210;DHT22;90;48.810;9.120;2023-03-01T16:04:49;12.90;65.70
210;DHT22;90;48.810;9.120;2023-03-01T16:07:17;13.50;61.90
210;DHT22;90;48.810;9.120;2023-03-01T16:09:43;13.80;59.30
210;DHT22;90;48.810;9.120;2023-03-01T16:12:14;13.90;55.40
210;DHT22;90;48.810;9.120;2023-03-01T16:14:43;14.10;54.40
210;DHT22;90;48.810;9.120;2023-03-01T16:17:10;14.20;53.00
210;DHT22;90;48.810;9.120;2023-03-01T16:19:37;14.20;52.40
210;DHT22;90;48.810;9.120;2023-03-01T16:22:04;14.10;52.00
210;DHT22;90;48.810;9.120;2023-03-01T16:24:31;14.00;51.60
210;DHT22;90;48.810;9.120;2023-03-01T16:26:58;13.90;50.70
210;DHT22;90;48.810;9.120;2023-03-01T16:29:26;13.90;48.10
210;DHT22;90;48.810;9.120;2023-03-01T16:31:56;13.90;51.20
210;DHT22;90;48.810;9.120;2023-03-01T16:34:27;14.10;50.70
210;DHT22;90;48.810;9.120;2023-03-01T16:37:02;13.70;43.20
210;DHT22;90;48.810;9.120;2023-03-01T16:39:29;12.70;43.20
210;DHT22;90;48.810;9.120;2023-03-01T16:41:59;11.70;44.60
210;DHT22;90;48.810;9.120;2023-03-01T16:44:26;10.90;46.10
210;DHT22;90;48.810;9.120;2023-03-01T16:47:00;10.10;47.20
210;DHT22;90;48.810;9.120;2023-03-01T16:49:27;9.50;48.80
210;DHT22;90;48.810;9.120;2023-03-01T16:51:55;8.70;50.70
210;DHT22;90;48.810;9.120;2023-03-01T16:54:26;8.10;52.40
210;DHT22;90;48.810;9.120;2023-03-01T16:56:55;7.90;53.20
210;DHT22;90;48.810;9.120;2023-03-01T16:59:31;7.70;53.80
210;DHT22;90;48.810;9.120;2023-03-01T17:02:00;7.70;54.10
210;DHT22;90;48.810;9.120;2023-03-01T17:04:27;7.60;54.40
210;DHT22;90;48.810;9.120;2023-03-01T17:06:54;7.50;54.80
210;DHT22;90;48.810;9.120;2023-03-01T17:09:21;7.30;55.30
210;DHT22;90;48.810;9.120;2023-03-01T17:11:48;7.20;55.70
210;DHT22;90;48.810;9.120;2023-03-01T17:14:16;8.00;69.20
210;DHT22;90;48.810;9.120;2023-03-01T17:16:44;8.00;58.00
210;DHT22;90;48.810;9.120;2023-03-01T17:19:15;7.70;55.20
210;DHT22;90;48.810;9.120;2023-03-01T17:21:43;7.40;55.60
210;DHT22;90;48.810;9.120;2023-03-01T17:24:10;7.10;56.20
210;DHT22;90;48.810;9.120;2023-03-01T17:26:38;7.00;56.50
210;DHT22;90;48.810;9.120;2023-03-01T17:29:05;6.90;56.90
210;DHT22;90;48.810;9.120;2023-03-01T17:31:32;6.70;57.30
210;DHT22;90;48.810;9.120;2023-03-01T17:34:00;6.60;57.70
210;DHT22;90;48.810;9.120;2023-03-01T17:36:28;6.50;58.00
210;DHT22;90;48.810;9.120;2023-03-01T17:38:55;6.50;58.30
210;DHT22;90;48.810;9.120;2023-03-01T17:41:22;6.30;58.70
210;DHT22;90;48.810;9.120;2023-03-01T17:43:49;6.20;59.00
210;DHT22;90;48.810;9.120;2023-03-01T17:46:16;6.30;59.20
210;DHT22;90;48.810;9.120;2023-03-01T17:48:43;6.20;59.30
210;DHT22;90;48.810;9.120;2023-03-01T17:51:11;6.10;59.60
210;DHT22;90;48.810;9.120;2023-03-01T17:53:39;6.20;59.50
210;DHT22;90;48.810;9.120;2023-03-01T17:56:07;6.10;59.60
210;DHT22;90;48.810;9.120;2023-03-01T17:58:34;6.10;59.90
210;DHT22;90;48.810;9.120;2023-03-01T18:01:08;6.10;60.10
210;DHT22;90;48.810;9.120;2023-03-01T18:03:35;6.00;60.10
210;DHT22;90;48.810;9.120;2023-03-01T18:06:09;6.00;60.30
210;DHT22;90;48.810;9.120;2023-03-01T18:08:36;6.00;60.40
210;DHT22;90;48.810;9.120;2023-03-01T18:11:05;5.90;60.50
210;DHT22;90;48.810;9.120;2023-03-01T18:13:32;5.80;60.70
210;DHT22;90;48.810;9.120;2023-03-01T18:16:01;5.80;60.70
210;DHT22;90;48.810;9.120;2023-03-01T18:18:30;5.80;60.80
210;DHT22;90;48.810;9.120;2023-03-01T18:20:57;5.70;60.80
210;DHT22;90;48.810;9.120;2023-03-01T18:23:24;5.70;61.00
210;DHT22;90;48.810;9.120;2023-03-01T18:25:56;5.70;61.20
210;DHT22;90;48.810;9.120;2023-03-01T18:28:24;5.70;61.30
210;DHT22;90;48.810;9.120;2023-03-01T18:30:55;5.70;61.00
210;DHT22;90;48.810;9.120;2023-03-01T18:33:23;5.80;60.80
210;DHT22;90;48.810;9.120;2023-03-01T18:35:50;5.80;60.90
210;DHT22;90;48.810;9.120;2023-03-01T18:38:17;5.80;60.50
210;DHT22;90;48.810;9.120;2023-03-01T18:40:45;5.70;60.60
210;DHT22;90;48.810;9.120;2023-03-01T18:43:12;5.60;60.90
210;DHT22;90;48.810;9.120;2023-03-01T18:45:40;5.40;62.00
210;DHT22;90;48.810;9.120;2023-03-01T18:48:10;5.40;61.90
210;DHT22;90;48.810;9.120;2023-03-01T18:50:37;5.30;61.60
210;DHT22;90;48.810;9.120;2023-03-01T18:53:08;5.20;61.80
210;DHT22;90;48.810;9.120;2023-03-01T18:55:36;5.10;62.30
210;DHT22;90;48.810;9.120;2023-03-01T18:58:03;5.10;62.40
210;DHT22;90;48.810;9.120;2023-03-01T19:00:30;5.00;62.70
210;DHT22;90;48.810;9.120;2023-03-01T19:02:59;4.80;62.90
210;DHT22;90;48.810;9.120;2023-03-01T19:05:26;4.90;63.10
210;DHT22;90;48.810;9.120;2023-03-01T19:07:54;4.90;63.00
210;DHT22;90;48.810;9.120;2023-03-01T19:10:22;4.80;63.30
210;DHT22;90;48.810;9.120;2023-03-01T19:12:49;4.80;63.30
210;DHT22;90;48.810;9.120;2023-03-01T19:15:16;4.80;63.30
210;DHT22;90;48.810;9.120;2023-03-01T19:17:43;4.70;63.40
210;DHT22;90;48.810;9.120;2023-03-01T19:20:12;4.60;63.60
210;DHT22;90;48.810;9.120;2023-03-01T19:22:39;4.50;64.00
210;DHT22;90;48.810;9.120;2023-03-01T19:25:07;4.40;64.40
210;DHT22;90;48.810;9.120;2023-03-01T19:27:36;4.30;64.60
210;DHT22;90;48.810;9.120;2023-03-01T19:30:05;4.20;65.10
210;DHT22;90;48.810;9.120;2023-03-01T19:32:33;4.20;65.10
210;DHT22;90;48.810;9.120;2023-03-01T19:35:00;4.20;65.10
210;DHT22;90;48.810;9.120;2023-03-01T19:37:29;4.20;65.30
210;DHT22;90;48.810;9.120;2023-03-01T19:39:56;4.10;65.50
210;DHT22;90;48.810;9.120;2023-03-01T19:42:24;4.00;65.70
210;DHT22;90;48.810;9.120;2023-03-01T19:44:53;4.00;65.70
210;DHT22;90;48.810;9.120;2023-03-01T19:47:20;3.90;66.10
210;DHT22;90;48.810;9.120;2023-03-01T19:49:47;4.00;66.20
210;DHT22;90;48.810;9.120;2023-03-01T19:52:14;3.90;66.20
210;DHT22;90;48.810;9.120;2023-03-01T19:54:42;3.90;66.10
210;DHT22;90;48.810;9.120;2023-03-01T19:57:10;3.80;66.60
210;DHT22;90;48.810;9.120;2023-03-01T19:59:37;3.80;66.80
210;DHT22;90;48.810;9.120;2023-03-01T20:02:04;3.80;66.70
210;DHT22;90;48.810;9.120;2023-03-01T20:04:32;3.70;66.90
210;DHT22;90;48.810;9.120;2023-03-01T20:06:59;3.70;67.10
210;DHT22;90;48.810;9.120;2023-03-01T20:09:26;3.70;67.00
210;DHT22;90;48.810;9.120;2023-03-01T20:11:55;3.70;67.10
210;DHT22;90;48.810;9.120;2023-03-01T20:14:22;3.60;67.30
210;DHT22;90;48.810;9.120;2023-03-01T20:16:49;3.50;67.60
210;DHT22;90;48.810;9.120;2023-03-01T20:19:16;3.50;67.90
210;DHT22;90;48.810;9.120;2023-03-01T20:21:43;3.50;67.90
210;DHT22;90;48.810;9.120;2023-03-01T20:24:10;3.50;67.90
210;DHT22;90;48.810;9.120;2023-03-01T20:26:38;3.50;67.90
210;DHT22;90;48.810;9.120;2023-03-01T20:29:08;3.40;67.90
210;DHT22;90;48.810;9.120;2023-03-01T20:31:36;3.40;68.10
210;DHT22;90;48.810;9.120;2023-03-01T20:34:04;3.30;68.50
210;DHT22;90;48.810;9.120;2023-03-01T20:36:31;3.30;68.90
210;DHT22;90;48.810;9.120;2023-03-01T20:38:58;3.30;68.90
210;DHT22;90;48.810;9.120;2023-03-01T20:41:25;3.30;69.10
210;DHT22;90;48.810;9.120;2023-03-01T20:43:54;3.30;69.00
210;DHT22;90;48.810;9.120;2023-03-01T20:46:25;3.40;69.10
210;DHT22;90;48.810;9.120;2023-03-01T20:48:56;3.40;69.00
210;DHT22;90;48.810;9.120;2023-03-01T20:51:24;3.40;69.20
210;DHT22;90;48.810;9.120;2023-03-01T20:53:51;3.40;69.00
210;DHT22;90;48.810;9.120;2023-03-01T20:56:19;3.30;68.90
210;DHT22;90;48.810;9.120;2023-03-01T20:58:46;3.30;69.00
210;DHT22;90;48.810;9.120;2023-03-01T21:01:16;3.20;69.50
210;DHT22;90;48.810;9.120;2023-03-01T21:03:45;3.10;69.70
210;DHT22;90;48.810;9.120;2023-03-01T21:06:12;3.00;70.30
210;DHT22;90;48.810;9.120;2023-03-01T21:08:40;3.20;70.80
210;DHT22;90;48.810;9.120;2023-03-01T21:11:07;3.20;69.90
210;DHT22;90;48.810;9.120;2023-03-01T21:13:35;3.20;70.00
210;DHT22;90;48.810;9.120;2023-03-01T21:16:08;3.20;70.10
210;DHT22;90;48.810;9.120;2023-03-01T21:18:37;3.40;80.30
210;DHT22;90;48.810;9.120;2023-03-01T21:21:07;3.40;72.20
210;DHT22;90;48.810;9.120;2023-03-01T21:23:37;3.40;70.10
210;DHT22;90;48.810;9.120;2023-03-01T21:26:06;3.30;69.80
210;DHT22;90;48.810;9.120;2023-03-01T21:28:34;3.20;70.20
210;DHT22;90;48.810;9.120;2023-03-01T21:31:03;3.10;70.50
210;DHT22;90;48.810;9.120;2023-03-01T21:33:30;3.10;70.50
210;DHT22;90;48.810;9.120;2023-03-01T21:35:59;3.00;70.70
210;DHT22;90;48.810;9.120;2023-03-01T21:38:30;3.10;70.80
210;DHT22;90;48.810;9.120;2023-03-01T21:41:02;3.00;70.80
210;DHT22;90;48.810;9.120;2023-03-01T21:43:30;3.00;71.00
210;DHT22;90;48.810;9.120;2023-03-01T21:46:00;3.00;70.90
210;DHT22;90;48.810;9.120;2023-03-01T21:48:28;2.90;71.10
210;DHT22;90;48.810;9.120;2023-03-01T21:50:55;2.80;71.20
210;DHT22;90;48.810;9.120;2023-03-01T21:53:23;2.70;71.80
210;DHT22;90;48.810;9.120;2023-03-01T21:55:52;2.70;71.90
210;DHT22;90;48.810;9.120;2023-03-01T21:58:19;2.70;72.20
210;DHT22;90;48.810;9.120;2023-03-01T22:00:47;2.60;72.10
210;DHT22;90;48.810;9.120;2023-03-01T22:03:14;2.60;72.30
210;DHT22;90;48.810;9.120;2023-03-01T22:05:41;2.60;72.30
210;DHT22;90;48.810;9.120;2023-03-01T22:08:08;2.60;72.40
210;DHT22;90;48.810;9.120;2023-03-01T22:10:38;2.50;72.70
210;DHT22;90;48.810;9.120;2023-03-01T22:13:09;2.50;72.80
210;DHT22;90;48.810;9.120;2023-03-01T22:15:39;2.50;72.60